sensor_id;sensor_type;location;lat;lon;timestamp;P1;durP1;ratioP1;P2;durP2;ratioP2
42834;SDS011;29335;50.526;30.458;2022-09-29T00:02:24;7.57;;;6.35;;
42834;SDS011;29335;50.526;30.458;2022-09-29T00:04:50;7.70;;;6.80;;
42834;SDS011;29335;50.526;30.458;2022-09-29T00:07:17;6.90;;;5.78;;
42834;SDS011;29335;50.526;30.458;2022-09-29T00:09:42;9.13;;;7.07;;
42834;SDS011;29335;50.526;30.458;2022-09-29T00:12:08;9.57;;;6.72;;
42834;SDS011;29335;50.526;30.458;2022-09-29T00:14:34;7.32;;;6.43;;
42834;SDS011;29335;50.526;30.458;2022-09-29T00:16:59;9.32;;;6.30;;
42834;SDS011;29335;50.526;30.458;2022-09-29T00:19:25;7.57;;;6.45;;
42834;SDS011;29335;50.526;30.458;2022-09-29T00:21:52;8.27;;;6.55;;
42834;SDS011;29335;50.526;30.458;2022-09-29T00:24:18;9.00;;;6.32;;
42834;SDS011;29335;50.526;30.458;2022-09-29T00:26:44;6.88;;;6.18;;
42834;SDS011;29335;50.526;30.458;2022-09-29T00:29:10;7.45;;;6.60;;
42834;SDS011;29335;50.526;30.458;2022-09-29T00:31:36;7.82;;;6.20;;
42834;SDS011;29335;50.526;30.458;2022-09-29T00:34:02;8.65;;;6.63;;
42834;SDS011;29335;50.526;30.458;2022-09-29T00:36:27;7.57;;;6.47;;
42834;SDS011;29335;50.526;30.458;2022-09-29T00:38:54;10.20;;;7.68;;
42834;SDS011;29335;50.526;30.458;2022-09-29T00:41:25;8.70;;;7.57;;
42834;SDS011;29335;50.526;30.458;2022-09-29T00:44:02;10.00;;;7.45;;
42834;SDS011;29335;50.526;30.458;2022-09-29T00:49:40;9.50;;;7.03;;
42834;SDS011;29335;50.526;30.458;2022-09-29T00:52:17;8.45;;;6.22;;
42834;SDS011;29335;50.526;30.458;2022-09-29T00:54:48;8.82;;;6.55;;
42834;SDS011;29335;50.526;30.458;2022-09-29T00:57:18;7.10;;;6.10;;
42834;SDS011;29335;50.526;30.458;2022-09-29T00:59:50;8.32;;;5.93;;
42834;SDS011;29335;50.526;30.458;2022-09-29T01:02:22;7.18;;;6.00;;
42834;SDS011;29335;50.526;30.458;2022-09-29T01:04:48;7.60;;;6.05;;
42834;SDS011;29335;50.526;30.458;2022-09-29T01:07:18;6.80;;;6.10;;
42834;SDS011;29335;50.526;30.458;2022-09-29T01:09:48;6.28;;;5.47;;
42834;SDS011;29335;50.526;30.458;2022-09-29T01:12:16;9.55;;;6.25;;
42834;SDS011;29335;50.526;30.458;2022-09-29T01:14:42;7.25;;;6.30;;
42834;SDS011;29335;50.526;30.458;2022-09-29T01:17:09;7.18;;;5.40;;
42834;SDS011;29335;50.526;30.458;2022-09-29T01:19:39;8.10;;;6.00;;
42834;SDS011;29335;50.526;30.458;2022-09-29T01:25:24;8.65;;;5.82;;
42834;SDS011;29335;50.526;30.458;2022-09-29T01:28:31;10.25;;;5.82;;
42834;SDS011;29335;50.526;30.458;2022-09-29T01:31:28;7.55;;;5.40;;
42834;SDS011;29335;50.526;30.458;2022-09-29T01:34:24;6.75;;;5.50;;
42834;SDS011;29335;50.526;30.458;2022-09-29T01:37:16;7.22;;;5.25;;
42834;SDS011;29335;50.526;30.458;2022-09-29T01:42:39;5.65;;;5.05;;
42834;SDS011;29335;50.526;30.458;2022-09-29T01:45:15;7.78;;;4.93;;
42834;SDS011;29335;50.526;30.458;2022-09-29T01:47:49;6.05;;;5.28;;
42834;SDS011;29335;50.526;30.458;2022-09-29T01:50:21;6.90;;;4.95;;
42834;SDS011;29335;50.526;30.458;2022-09-29T01:52:53;6.53;;;5.47;;
42834;SDS011;29335;50.526;30.458;2022-09-29T01:55:24;5.78;;;5.18;;
42834;SDS011;29335;50.526;30.458;2022-09-29T01:57:56;5.55;;;4.68;;
42834;SDS011;29335;50.526;30.458;2022-09-29T02:00:25;5.82;;;4.40;;
42834;SDS011;29335;50.526;30.458;2022-09-29T02:05:46;5.15;;;4.40;;
42834;SDS011;29335;50.526;30.458;2022-09-29T02:08:14;7.82;;;4.82;;
42834;SDS011;29335;50.526;30.458;2022-09-29T02:10:58;4.85;;;4.35;;
42834;SDS011;29335;50.526;30.458;2022-09-29T02:14:21;5.30;;;4.50;;
42834;SDS011;29335;50.526;30.458;2022-09-29T02:16:37;5.78;;;4.60;;
42834;SDS011;29335;50.526;30.458;2022-09-29T02:19:07;7.75;;;4.25;;
42834;SDS011;29335;50.526;30.458;2022-09-29T02:21:39;5.20;;;4.70;;
42834;SDS011;29335;50.526;30.458;2022-09-29T02:24:04;5.65;;;4.80;;
42834;SDS011;29335;50.526;30.458;2022-09-29T02:26:31;6.00;;;5.05;;
42834;SDS011;29335;50.526;30.458;2022-09-29T02:28:59;10.25;;;5.20;;
42834;SDS011;29335;50.526;30.458;2022-09-29T02:31:26;6.68;;;4.80;;
42834;SDS011;29335;50.526;30.458;2022-09-29T02:33:52;5.60;;;5.10;;
42834;SDS011;29335;50.526;30.458;2022-09-29T02:36:33;5.95;;;4.57;;
42834;SDS011;29335;50.526;30.458;2022-09-29T02:39:25;5.45;;;4.75;;
42834;SDS011;29335;50.526;30.458;2022-09-29T02:44:28;6.78;;;4.85;;
42834;SDS011;29335;50.526;30.458;2022-09-29T02:58:14;4.70;;;4.07;;
42834;SDS011;29335;50.526;30.458;2022-09-29T03:01:11;4.82;;;4.32;;
42834;SDS011;29335;50.526;30.458;2022-09-29T03:03:38;5.70;;;4.45;;
42834;SDS011;29335;50.526;30.458;2022-09-29T03:06:04;5.80;;;4.30;;
42834;SDS011;29335;50.526;30.458;2022-09-29T03:08:30;6.00;;;5.10;;
42834;SDS011;29335;50.526;30.458;2022-09-29T03:10:56;5.97;;;4.72;;
42834;SDS011;29335;50.526;30.458;2022-09-29T03:13:21;6.00;;;4.85;;
42834;SDS011;29335;50.526;30.458;2022-09-29T03:15:47;5.32;;;4.40;;
42834;SDS011;29335;50.526;30.458;2022-09-29T03:18:13;5.20;;;4.45;;
42834;SDS011;29335;50.526;30.458;2022-09-29T03:20:38;5.47;;;4.82;;
42834;SDS011;29335;50.526;30.458;2022-09-29T03:23:04;10.10;;;5.20;;
42834;SDS011;29335;50.526;30.458;2022-09-29T03:25:29;6.47;;;5.50;;
42834;SDS011;29335;50.526;30.458;2022-09-29T03:27:55;5.60;;;5.07;;
42834;SDS011;29335;50.526;30.458;2022-09-29T03:30:20;5.88;;;5.25;;
42834;SDS011;29335;50.526;30.458;2022-09-29T03:32:47;5.78;;;5.13;;
42834;SDS011;29335;50.526;30.458;2022-09-29T03:35:13;7.00;;;6.30;;
42834;SDS011;29335;50.526;30.458;2022-09-29T03:37:38;6.60;;;5.43;;
42834;SDS011;29335;50.526;30.458;2022-09-29T03:40:04;6.13;;;5.53;;
42834;SDS011;29335;50.526;30.458;2022-09-29T03:42:30;7.43;;;6.40;;
42834;SDS011;29335;50.526;30.458;2022-09-29T03:44:56;7.35;;;5.78;;
42834;SDS011;29335;50.526;30.458;2022-09-29T03:47:22;8.30;;;6.63;;
42834;SDS011;29335;50.526;30.458;2022-09-29T03:49:48;7.72;;;6.78;;
42834;SDS011;29335;50.526;30.458;2022-09-29T03:52:13;9.18;;;7.72;;
42834;SDS011;29335;50.526;30.458;2022-09-29T03:54:39;9.82;;;7.90;;
42834;SDS011;29335;50.526;30.458;2022-09-29T03:57:05;8.98;;;7.47;;
42834;SDS011;29335;50.526;30.458;2022-09-29T03:59:30;8.77;;;7.88;;
42834;SDS011;29335;50.526;30.458;2022-09-29T04:01:56;8.95;;;7.63;;
42834;SDS011;29335;50.526;30.458;2022-09-29T04:04:21;9.35;;;7.45;;
42834;SDS011;29335;50.526;30.458;2022-09-29T04:06:47;7.97;;;7.22;;
42834;SDS011;29335;50.526;30.458;2022-09-29T04:09:12;8.02;;;6.85;;
42834;SDS011;29335;50.526;30.458;2022-09-29T04:11:38;7.82;;;7.05;;
42834;SDS011;29335;50.526;30.458;2022-09-29T04:14:04;8.30;;;6.63;;
42834;SDS011;29335;50.526;30.458;2022-09-29T04:16:29;6.93;;;6.22;;
42834;SDS011;29335;50.526;30.458;2022-09-29T04:18:55;7.15;;;6.45;;
42834;SDS011;29335;50.526;30.458;2022-09-29T04:21:21;7.70;;;6.10;;
42834;SDS011;29335;50.526;30.458;2022-09-29T04:23:47;9.13;;;6.10;;
42834;SDS011;29335;50.526;30.458;2022-09-29T04:26:13;6.78;;;6.07;;
42834;SDS011;29335;50.526;30.458;2022-09-29T04:28:39;6.78;;;6.07;;
42834;SDS011;29335;50.526;30.458;2022-09-29T04:31:05;8.98;;;5.95;;
42834;SDS011;29335;50.526;30.458;2022-09-29T04:33:31;7.43;;;6.10;;
42834;SDS011;29335;50.526;30.458;2022-09-29T04:35:57;8.68;;;6.60;;
42834;SDS011;29335;50.526;30.458;2022-09-29T04:38:23;7.95;;;6.60;;
42834;SDS011;29335;50.526;30.458;2022-09-29T04:40:49;11.30;;;6.55;;
42834;SDS011;29335;50.526;30.458;2022-09-29T04:43:15;7.40;;;6.63;;
42834;SDS011;29335;50.526;30.458;2022-09-29T04:45:40;7.90;;;6.28;;
42834;SDS011;29335;50.526;30.458;2022-09-29T04:48:06;6.78;;;5.82;;
42834;SDS011;29335;50.526;30.458;2022-09-29T04:50:32;7.22;;;6.22;;
42834;SDS011;29335;50.526;30.458;2022-09-29T04:52:58;7.93;;;6.13;;
42834;SDS011;29335;50.526;30.458;2022-09-29T04:55:24;8.50;;;6.57;;
42834;SDS011;29335;50.526;30.458;2022-09-29T04:57:50;8.38;;;6.63;;
42834;SDS011;29335;50.526;30.458;2022-09-29T05:00:16;10.23;;;7.03;;
42834;SDS011;29335;50.526;30.458;2022-09-29T05:02:41;8.95;;;6.72;;
42834;SDS011;29335;50.526;30.458;2022-09-29T05:05:08;11.35;;;7.45;;
42834;SDS011;29335;50.526;30.458;2022-09-29T05:07:35;8.10;;;6.72;;
42834;SDS011;29335;50.526;30.458;2022-09-29T05:10:02;8.75;;;7.32;;
42834;SDS011;29335;50.526;30.458;2022-09-29T05:12:28;8.38;;;7.45;;
42834;SDS011;29335;50.526;30.458;2022-09-29T05:14:54;10.40;;;7.57;;
42834;SDS011;29335;50.526;30.458;2022-09-29T05:17:20;8.68;;;7.70;;
42834;SDS011;29335;50.526;30.458;2022-09-29T05:19:45;8.50;;;7.43;;
42834;SDS011;29335;50.526;30.458;2022-09-29T05:22:11;9.30;;;7.78;;
42834;SDS011;29335;50.526;30.458;2022-09-29T05:24:36;9.52;;;7.45;;
42834;SDS011;29335;50.526;30.458;2022-09-29T05:27:02;8.55;;;7.15;;
42834;SDS011;29335;50.526;30.458;2022-09-29T05:29:28;9.23;;;6.93;;
42834;SDS011;29335;50.526;30.458;2022-09-29T05:31:53;8.15;;;7.30;;
42834;SDS011;29335;50.526;30.458;2022-09-29T05:34:19;8.77;;;7.63;;
42834;SDS011;29335;50.526;30.458;2022-09-29T05:36:45;11.20;;;7.60;;
42834;SDS011;29335;50.526;30.458;2022-09-29T05:39:10;10.50;;;6.82;;
42834;SDS011;29335;50.526;30.458;2022-09-29T05:41:36;10.95;;;7.70;;
42834;SDS011;29335;50.526;30.458;2022-09-29T05:44:02;11.35;;;8.18;;
42834;SDS011;29335;50.526;30.458;2022-09-29T05:46:28;9.05;;;8.15;;
42834;SDS011;29335;50.526;30.458;2022-09-29T05:48:53;17.45;;;13.98;;
42834;SDS011;29335;50.526;30.458;2022-09-29T05:51:20;10.38;;;7.93;;
42834;SDS011;29335;50.526;30.458;2022-09-29T05:53:48;9.80;;;7.53;;
42834;SDS011;29335;50.526;30.458;2022-09-29T05:56:17;12.82;;;8.98;;
42834;SDS011;29335;50.526;30.458;2022-09-29T05:58:44;10.70;;;7.85;;
42834;SDS011;29335;50.526;30.458;2022-09-29T06:01:11;12.02;;;7.85;;
42834;SDS011;29335;50.526;30.458;2022-09-29T06:03:39;12.10;;;8.23;;
42834;SDS011;29335;50.526;30.458;2022-09-29T06:06:06;12.88;;;8.40;;
42834;SDS011;29335;50.526;30.458;2022-09-29T06:08:33;11.27;;;7.82;;
42834;SDS011;29335;50.526;30.458;2022-09-29T06:11:06;13.25;;;9.65;;
42834;SDS011;29335;50.526;30.458;2022-09-29T06:13:37;16.08;;;11.32;;
42834;SDS011;29335;50.526;30.458;2022-09-29T06:16:03;17.58;;;10.70;;
42834;SDS011;29335;50.526;30.458;2022-09-29T06:18:29;16.55;;;11.18;;
42834;SDS011;29335;50.526;30.458;2022-09-29T06:21:01;15.57;;;10.70;;
42834;SDS011;29335;50.526;30.458;2022-09-29T06:23:29;20.77;;;11.25;;
42834;SDS011;29335;50.526;30.458;2022-09-29T06:25:58;18.70;;;11.85;;
42834;SDS011;29335;50.526;30.458;2022-09-29T06:28:26;18.88;;;13.25;;
42834;SDS011;29335;50.526;30.458;2022-09-29T06:31:07;16.75;;;12.48;;
42834;SDS011;29335;50.526;30.458;2022-09-29T06:33:37;20.30;;;14.00;;
42834;SDS011;29335;50.526;30.458;2022-09-29T06:36:05;19.10;;;14.30;;
42834;SDS011;29335;50.526;30.458;2022-09-29T06:39:01;21.13;;;15.02;;
42834;SDS011;29335;50.526;30.458;2022-09-29T06:41:29;20.98;;;13.75;;
42834;SDS011;29335;50.526;30.458;2022-09-29T06:43:55;16.65;;;13.15;;
42834;SDS011;29335;50.526;30.458;2022-09-29T06:46:20;22.48;;;13.25;;
42834;SDS011;29335;50.526;30.458;2022-09-29T06:48:46;20.65;;;13.70;;
42834;SDS011;29335;50.526;30.458;2022-09-29T06:51:12;14.43;;;12.90;;
42834;SDS011;29335;50.526;30.458;2022-09-29T06:53:39;18.38;;;15.27;;
42834;SDS011;29335;50.526;30.458;2022-09-29T06:56:05;18.55;;;12.85;;
42834;SDS011;29335;50.526;30.458;2022-09-29T06:58:33;20.98;;;15.32;;
42834;SDS011;29335;50.526;30.458;2022-09-29T07:01:00;20.42;;;14.65;;
42834;SDS011;29335;50.526;30.458;2022-09-29T07:03:26;17.13;;;13.80;;
42834;SDS011;29335;50.526;30.458;2022-09-29T07:05:55;16.23;;;13.35;;
42834;SDS011;29335;50.526;30.458;2022-09-29T07:08:21;18.52;;;13.15;;
42834;SDS011;29335;50.526;30.458;2022-09-29T07:10:46;17.73;;;12.18;;
42834;SDS011;29335;50.526;30.458;2022-09-29T07:13:12;12.63;;;11.15;;
42834;SDS011;29335;50.526;30.458;2022-09-29T07:15:38;14.55;;;10.15;;
42834;SDS011;29335;50.526;30.458;2022-09-29T07:18:04;14.93;;;10.07;;
42834;SDS011;29335;50.526;30.458;2022-09-29T07:20:30;13.25;;;10.25;;
42834;SDS011;29335;50.526;30.458;2022-09-29T07:22:56;16.13;;;10.85;;
42834;SDS011;29335;50.526;30.458;2022-09-29T07:25:22;16.27;;;9.82;;
42834;SDS011;29335;50.526;30.458;2022-09-29T07:27:48;15.88;;;9.55;;
42834;SDS011;29335;50.526;30.458;2022-09-29T07:30:15;13.70;;;8.20;;
42834;SDS011;29335;50.526;30.458;2022-09-29T07:32:42;14.88;;;7.53;;
42834;SDS011;29335;50.526;30.458;2022-09-29T07:35:08;11.98;;;7.03;;
42834;SDS011;29335;50.526;30.458;2022-09-29T07:37:33;9.15;;;5.53;;
42834;SDS011;29335;50.526;30.458;2022-09-29T07:39:59;8.88;;;6.05;;
42834;SDS011;29335;50.526;30.458;2022-09-29T07:42:26;13.23;;;5.00;;
42834;SDS011;29335;50.526;30.458;2022-09-29T07:44:53;6.70;;;3.75;;
42834;SDS011;29335;50.526;30.458;2022-09-29T07:47:19;7.95;;;4.13;;
42834;SDS011;29335;50.526;30.458;2022-09-29T07:49:45;6.78;;;3.80;;
42834;SDS011;29335;50.526;30.458;2022-09-29T07:52:11;5.10;;;2.85;;
42834;SDS011;29335;50.526;30.458;2022-09-29T07:54:37;4.85;;;3.20;;
42834;SDS011;29335;50.526;30.458;2022-09-29T07:57:03;7.38;;;3.60;;
42834;SDS011;29335;50.526;30.458;2022-09-29T07:59:31;4.88;;;2.80;;
42834;SDS011;29335;50.526;30.458;2022-09-29T08:01:57;4.60;;;2.80;;
42834;SDS011;29335;50.526;30.458;2022-09-29T08:04:23;4.82;;;3.05;;
42834;SDS011;29335;50.526;30.458;2022-09-29T08:06:49;5.00;;;3.10;;
42834;SDS011;29335;50.526;30.458;2022-09-29T08:09:14;5.55;;;3.55;;
42834;SDS011;29335;50.526;30.458;2022-09-29T08:11:40;4.55;;;3.20;;
42834;SDS011;29335;50.526;30.458;2022-09-29T08:14:07;5.82;;;3.50;;
42834;SDS011;29335;50.526;30.458;2022-09-29T08:16:34;4.68;;;3.30;;
42834;SDS011;29335;50.526;30.458;2022-09-29T08:19:01;6.22;;;3.60;;
42834;SDS011;29335;50.526;30.458;2022-09-29T08:21:27;8.95;;;2.80;;
42834;SDS011;29335;50.526;30.458;2022-09-29T08:23:54;5.75;;;3.75;;
42834;SDS011;29335;50.526;30.458;2022-09-29T08:26:20;7.32;;;3.50;;
42834;SDS011;29335;50.526;30.458;2022-09-29T08:28:46;8.52;;;4.07;;
42834;SDS011;29335;50.526;30.458;2022-09-29T08:31:13;6.57;;;3.40;;
42834;SDS011;29335;50.526;30.458;2022-09-29T08:36:10;8.32;;;3.80;;
42834;SDS011;29335;50.526;30.458;2022-09-29T08:38:39;8.05;;;3.53;;
42834;SDS011;29335;50.526;30.458;2022-09-29T08:43:53;8.25;;;3.80;;
42834;SDS011;29335;50.526;30.458;2022-09-29T08:46:27;5.40;;;3.50;;
42834;SDS011;29335;50.526;30.458;2022-09-29T08:49:06;4.78;;;3.22;;
42834;SDS011;29335;50.526;30.458;2022-09-29T08:51:43;6.80;;;3.38;;
42834;SDS011;29335;50.526;30.458;2022-09-29T08:54:25;13.63;;;4.18;;
42834;SDS011;29335;50.526;30.458;2022-09-29T08:57:00;7.35;;;4.00;;
42834;SDS011;29335;50.526;30.458;2022-09-29T08:59:26;9.70;;;4.03;;
42834;SDS011;29335;50.526;30.458;2022-09-29T09:07:40;12.10;;;4.63;;
42834;SDS011;29335;50.526;30.458;2022-09-29T09:10:42;8.40;;;4.90;;
42834;SDS011;29335;50.526;30.458;2022-09-29T09:21:46;11.15;;;4.85;;
42834;SDS011;29335;50.526;30.458;2022-09-29T09:24:21;9.45;;;4.75;;
42834;SDS011;29335;50.526;30.458;2022-09-29T09:26:53;11.82;;;4.75;;
42834;SDS011;29335;50.526;30.458;2022-09-29T09:29:27;11.82;;;4.55;;
42834;SDS011;29335;50.526;30.458;2022-09-29T09:32:11;10.55;;;4.30;;
42834;SDS011;29335;50.526;30.458;2022-09-29T09:34:49;6.70;;;3.50;;
42834;SDS011;29335;50.526;30.458;2022-09-29T09:37:20;9.88;;;3.80;;
42834;SDS011;29335;50.526;30.458;2022-09-29T09:39:54;6.07;;;2.95;;
42834;SDS011;29335;50.526;30.458;2022-09-29T09:42:41;5.00;;;3.00;;
42834;SDS011;29335;50.526;30.458;2022-09-29T09:47:45;6.70;;;3.63;;
42834;SDS011;29335;50.526;30.458;2022-09-29T09:50:16;8.10;;;2.50;;
42834;SDS011;29335;50.526;30.458;2022-09-29T09:52:48;3.42;;;2.80;;
42834;SDS011;29335;50.526;30.458;2022-09-29T09:55:16;3.65;;;2.80;;
42834;SDS011;29335;50.526;30.458;2022-09-29T10:02:51;4.53;;;2.58;;
42834;SDS011;29335;50.526;30.458;2022-09-29T10:05:20;3.00;;;2.17;;
42834;SDS011;29335;50.526;30.458;2022-09-29T10:10:21;3.20;;;2.05;;
42834;SDS011;29335;50.526;30.458;2022-09-29T10:13:11;5.82;;;2.22;;
42834;SDS011;29335;50.526;30.458;2022-09-29T10:18:28;4.05;;;2.65;;
42834;SDS011;29335;50.526;30.458;2022-09-29T10:21:34;2.60;;;1.85;;
42834;SDS011;29335;50.526;30.458;2022-09-29T10:24:01;3.85;;;2.00;;
42834;SDS011;29335;50.526;30.458;2022-09-29T10:29:14;5.15;;;2.10;;
42834;SDS011;29335;50.526;30.458;2022-09-29T10:31:41;2.78;;;1.75;;
42834;SDS011;29335;50.526;30.458;2022-09-29T10:36:52;2.45;;;1.70;;
42834;SDS011;29335;50.526;30.458;2022-09-29T10:39:37;4.25;;;1.67;;
42834;SDS011;29335;50.526;30.458;2022-09-29T10:52:52;2.42;;;1.90;;
42834;SDS011;29335;50.526;30.458;2022-09-29T10:55:19;3.83;;;1.85;;
42834;SDS011;29335;50.526;30.458;2022-09-29T10:57:47;2.90;;;1.60;;
42834;SDS011;29335;50.526;30.458;2022-09-29T11:06:04;3.45;;;2.03;;
42834;SDS011;29335;50.526;30.458;2022-09-29T11:08:32;3.30;;;1.67;;
42834;SDS011;29335;50.526;30.458;2022-09-29T11:11:33;3.25;;;1.60;;
42834;SDS011;29335;50.526;30.458;2022-09-29T11:14:03;3.80;;;1.77;;
42834;SDS011;29335;50.526;30.458;2022-09-29T11:16:33;3.35;;;2.42;;
42834;SDS011;29335;50.526;30.458;2022-09-29T11:19:11;7.88;;;2.00;;
42834;SDS011;29335;50.526;30.458;2022-09-29T11:24:31;3.65;;;1.60;;
42834;SDS011;29335;50.526;30.458;2022-09-29T11:30:15;8.80;;;2.05;;
42834;SDS011;29335;50.526;30.458;2022-09-29T11:35:36;6.90;;;2.00;;
42834;SDS011;29335;50.526;30.458;2022-09-29T11:38:22;4.57;;;1.70;;
42834;SDS011;29335;50.526;30.458;2022-09-29T11:43:45;3.20;;;1.77;;
42834;SDS011;29335;50.526;30.458;2022-09-29T12:00:06;4.20;;;1.85;;
42834;SDS011;29335;50.526;30.458;2022-09-29T12:05:46;6.45;;;2.00;;
42834;SDS011;29335;50.526;30.458;2022-09-29T12:14:04;4.60;;;1.83;;
42834;SDS011;29335;50.526;30.458;2022-09-29T12:16:35;3.33;;;2.10;;
42834;SDS011;29335;50.526;30.458;2022-09-29T12:19:08;4.43;;;1.65;;
42834;SDS011;29335;50.526;30.458;2022-09-29T12:21:41;5.93;;;1.80;;
42834;SDS011;29335;50.526;30.458;2022-09-29T12:24:18;4.97;;;1.50;;
42834;SDS011;29335;50.526;30.458;2022-09-29T12:26:50;7.22;;;3.45;;
42834;SDS011;29335;50.526;30.458;2022-09-29T12:29:24;5.97;;;2.30;;
42834;SDS011;29335;50.526;30.458;2022-09-29T12:31:59;5.28;;;2.42;;
42834;SDS011;29335;50.526;30.458;2022-09-29T12:37:21;5.32;;;2.50;;
42834;SDS011;29335;50.526;30.458;2022-09-29T12:50:41;5.43;;;2.50;;
42834;SDS011;29335;50.526;30.458;2022-09-29T12:55:52;7.70;;;2.22;;
42834;SDS011;29335;50.526;30.458;2022-09-29T12:58:44;10.20;;;2.90;;
42834;SDS011;29335;50.526;30.458;2022-09-29T13:01:33;6.38;;;2.55;;
42834;SDS011;29335;50.526;30.458;2022-09-29T13:04:20;9.18;;;2.75;;
42834;SDS011;29335;50.526;30.458;2022-09-29T13:24:09;5.53;;;1.92;;
42834;SDS011;29335;50.526;30.458;2022-09-29T13:27:41;5.57;;;2.42;;
42834;SDS011;29335;50.526;30.458;2022-09-29T13:29:55;5.32;;;2.25;;
42834;SDS011;29335;50.526;30.458;2022-09-29T13:32:26;6.72;;;2.72;;
42834;SDS011;29335;50.526;30.458;2022-09-29T13:34:54;5.30;;;2.38;;
42834;SDS011;29335;50.526;30.458;2022-09-29T13:37:22;4.15;;;2.22;;
42834;SDS011;29335;50.526;30.458;2022-09-29T13:39:56;5.22;;;2.25;;
42834;SDS011;29335;50.526;30.458;2022-09-29T13:42:39;4.07;;;2.15;;
42834;SDS011;29335;50.526;30.458;2022-09-29T13:47:45;3.40;;;2.03;;
42834;SDS011;29335;50.526;30.458;2022-09-29T13:58:29;6.35;;;2.40;;
42834;SDS011;29335;50.526;30.458;2022-09-29T14:01:03;3.42;;;2.28;;
42834;SDS011;29335;50.526;30.458;2022-09-29T14:03:35;5.13;;;2.35;;
42834;SDS011;29335;50.526;30.458;2022-09-29T14:11:39;5.03;;;2.22;;
42834;SDS011;29335;50.526;30.458;2022-09-29T14:14:58;4.88;;;2.20;;
42834;SDS011;29335;50.526;30.458;2022-09-29T14:32:58;3.38;;;2.08;;
42834;SDS011;29335;50.526;30.458;2022-09-29T14:35:53;7.88;;;2.72;;
42834;SDS011;29335;50.526;30.458;2022-09-29T14:38:27;7.78;;;2.70;;
42834;SDS011;29335;50.526;30.458;2022-09-29T14:43:36;5.15;;;2.45;;
42834;SDS011;29335;50.526;30.458;2022-09-29T14:49:11;4.72;;;2.47;;
42834;SDS011;29335;50.526;30.458;2022-09-29T15:00:19;11.15;;;7.78;;
42834;SDS011;29335;50.526;30.458;2022-09-29T15:02:47;5.45;;;2.70;;
42834;SDS011;29335;50.526;30.458;2022-09-29T15:05:28;3.20;;;2.47;;
42834;SDS011;29335;50.526;30.458;2022-09-29T15:07:56;3.67;;;2.58;;
42834;SDS011;29335;50.526;30.458;2022-09-29T15:10:24;4.60;;;2.50;;
42834;SDS011;29335;50.526;30.458;2022-09-29T15:15:48;5.55;;;3.03;;
42834;SDS011;29335;50.526;30.458;2022-09-29T15:18:23;5.65;;;3.20;;
42834;SDS011;29335;50.526;30.458;2022-09-29T15:21:05;4.40;;;2.75;;
42834;SDS011;29335;50.526;30.458;2022-09-29T15:26:14;4.40;;;2.95;;
42834;SDS011;29335;50.526;30.458;2022-09-29T15:28:43;3.53;;;3.03;;
42834;SDS011;29335;50.526;30.458;2022-09-29T15:31:18;6.43;;;2.92;;
42834;SDS011;29335;50.526;30.458;2022-09-29T15:36:19;6.13;;;3.05;;
42834;SDS011;29335;50.526;30.458;2022-09-29T15:38:53;3.97;;;3.00;;
42834;SDS011;29335;50.526;30.458;2022-09-29T15:41:39;5.65;;;3.35;;
42834;SDS011;29335;50.526;30.458;2022-09-29T15:44:12;8.55;;;3.15;;
42834;SDS011;29335;50.526;30.458;2022-09-29T15:46:48;4.80;;;3.42;;
42834;SDS011;29335;50.526;30.458;2022-09-29T15:49:17;3.40;;;3.00;;
42834;SDS011;29335;50.526;30.458;2022-09-29T15:52:09;6.63;;;4.47;;
42834;SDS011;29335;50.526;30.458;2022-09-29T15:54:39;7.65;;;3.53;;
42834;SDS011;29335;50.526;30.458;2022-09-29T15:57:30;5.28;;;3.53;;
42834;SDS011;29335;50.526;30.458;2022-09-29T16:00:15;4.28;;;3.30;;
42834;SDS011;29335;50.526;30.458;2022-09-29T16:03:21;5.00;;;3.72;;
42834;SDS011;29335;50.526;30.458;2022-09-29T16:05:53;6.25;;;3.53;;
42834;SDS011;29335;50.526;30.458;2022-09-29T16:08:28;5.03;;;3.65;;
42834;SDS011;29335;50.526;30.458;2022-09-29T16:10:58;7.45;;;3.83;;
42834;SDS011;29335;50.526;30.458;2022-09-29T16:13:34;5.82;;;4.00;;
42834;SDS011;29335;50.526;30.458;2022-09-29T16:16:04;7.85;;;4.13;;
42834;SDS011;29335;50.526;30.458;2022-09-29T16:18:32;5.28;;;3.95;;
42834;SDS011;29335;50.526;30.458;2022-09-29T16:21:11;6.13;;;3.95;;
42834;SDS011;29335;50.526;30.458;2022-09-29T16:23:51;5.13;;;3.63;;
42834;SDS011;29335;50.526;30.458;2022-09-29T16:26:34;4.95;;;3.25;;
42834;SDS011;29335;50.526;30.458;2022-09-29T16:31:43;6.45;;;3.70;;
42834;SDS011;29335;50.526;30.458;2022-09-29T16:36:46;8.52;;;4.20;;
42834;SDS011;29335;50.526;30.458;2022-09-29T16:39:14;7.55;;;4.80;;
42834;SDS011;29335;50.526;30.458;2022-09-29T16:41:41;5.65;;;4.30;;
42834;SDS011;29335;50.526;30.458;2022-09-29T16:49:19;5.93;;;4.97;;
42834;SDS011;29335;50.526;30.458;2022-09-29T16:51:50;5.72;;;5.10;;
42834;SDS011;29335;50.526;30.458;2022-09-29T16:54:27;6.45;;;5.85;;
42834;SDS011;29335;50.526;30.458;2022-09-29T16:59:42;7.38;;;5.70;;
42834;SDS011;29335;50.526;30.458;2022-09-29T17:02:09;8.77;;;6.00;;
42834;SDS011;29335;50.526;30.458;2022-09-29T17:04:35;9.07;;;5.88;;
42834;SDS011;29335;50.526;30.458;2022-09-29T17:07:01;7.32;;;5.20;;
42834;SDS011;29335;50.526;30.458;2022-09-29T17:09:27;6.57;;;4.85;;
42834;SDS011;29335;50.526;30.458;2022-09-29T17:11:53;7.60;;;6.20;;
42834;SDS011;29335;50.526;30.458;2022-09-29T17:14:19;7.32;;;6.05;;
42834;SDS011;29335;50.526;30.458;2022-09-29T17:16:45;6.82;;;5.57;;
42834;SDS011;29335;50.526;30.458;2022-09-29T17:19:14;6.25;;;5.65;;
42834;SDS011;29335;50.526;30.458;2022-09-29T17:21:40;7.80;;;5.95;;
42834;SDS011;29335;50.526;30.458;2022-09-29T17:24:06;10.00;;;7.97;;
42834;SDS011;29335;50.526;30.458;2022-09-29T17:26:34;7.93;;;6.20;;
42834;SDS011;29335;50.526;30.458;2022-09-29T17:29:23;6.68;;;5.55;;
42834;SDS011;29335;50.526;30.458;2022-09-29T17:31:49;7.82;;;5.70;;
42834;SDS011;29335;50.526;30.458;2022-09-29T17:34:14;6.53;;;5.15;;
42834;SDS011;29335;50.526;30.458;2022-09-29T17:36:41;7.45;;;5.80;;
42834;SDS011;29335;50.526;30.458;2022-09-29T17:39:08;6.95;;;6.05;;
42834;SDS011;29335;50.526;30.458;2022-09-29T17:41:34;7.65;;;5.82;;
42834;SDS011;29335;50.526;30.458;2022-09-29T17:43:59;6.68;;;5.97;;
42834;SDS011;29335;50.526;30.458;2022-09-29T17:46:28;7.88;;;5.63;;
42834;SDS011;29335;50.526;30.458;2022-09-29T17:48:54;7.28;;;5.97;;
42834;SDS011;29335;50.526;30.458;2022-09-29T17:51:19;6.88;;;6.18;;
42834;SDS011;29335;50.526;30.458;2022-09-29T17:53:45;7.53;;;6.25;;
42834;SDS011;29335;50.526;30.458;2022-09-29T17:56:17;9.02;;;6.70;;
42834;SDS011;29335;50.526;30.458;2022-09-29T17:58:46;8.43;;;6.95;;
42834;SDS011;29335;50.526;30.458;2022-09-29T18:01:14;7.75;;;6.90;;
42834;SDS011;29335;50.526;30.458;2022-09-29T18:03:43;8.77;;;7.20;;
42834;SDS011;29335;50.526;30.458;2022-09-29T18:06:09;10.18;;;7.35;;
42834;SDS011;29335;50.526;30.458;2022-09-29T18:08:45;10.40;;;6.93;;
42834;SDS011;29335;50.526;30.458;2022-09-29T18:11:12;8.40;;;6.90;;
42834;SDS011;29335;50.526;30.458;2022-09-29T18:13:38;8.65;;;7.85;;
42834;SDS011;29335;50.526;30.458;2022-09-29T18:16:03;7.85;;;7.05;;
42834;SDS011;29335;50.526;30.458;2022-09-29T18:18:29;9.65;;;6.03;;
42834;SDS011;29335;50.526;30.458;2022-09-29T18:20:54;8.25;;;7.45;;
42834;SDS011;29335;50.526;30.458;2022-09-29T18:23:20;8.32;;;7.47;;
42834;SDS011;29335;50.526;30.458;2022-09-29T18:25:48;8.82;;;7.93;;
42834;SDS011;29335;50.526;30.458;2022-09-29T18:28:16;10.38;;;8.43;;